createdAt,value
2022-10-01T00:02:09.007Z,73.71
2022-10-01T00:04:38.207Z,74.02
2022-10-01T00:07:09.963Z,74.48
2022-10-01T00:09:39.162Z,74.73
2022-10-01T00:12:07.747Z,74.55
2022-10-01T00:14:39.545Z,74.40
2022-10-01T00:17:08.297Z,74.36
2022-10-01T00:19:36.658Z,74.57
2022-10-01T00:22:05.303Z,74.71
2022-10-01T00:24:34.049Z,75.47
2022-10-01T00:27:02.432Z,75.18
2022-10-01T00:29:32.346Z,75.32
2022-10-01T00:32:01.783Z,75.15
2022-10-01T00:34:30.541Z,75.00
2022-10-01T00:36:59.124Z,74.51
2022-10-01T00:39:27.811Z,75.27
2022-10-01T00:41:56.089Z,75.76
2022-10-01T00:44:37.679Z,76.14
2022-10-01T00:47:15.275Z,76.66
2022-10-01T00:49:44.345Z,76.62
2022-10-01T00:52:15.913Z,76.48
2022-10-01T00:54:50.324Z,76.48
2022-10-01T00:57:22.044Z,77.22
2022-10-01T00:59:50.823Z,77.15
2022-10-01T01:02:19.381Z,77.35
2022-10-01T01:04:48.475Z,77.18
2022-10-01T01:07:16.958Z,77.05
2022-10-01T01:09:49.892Z,77.23
2022-10-01T01:12:25.122Z,77.03
2022-10-01T01:15:16.399Z,76.91
2022-10-01T01:18:09.522Z,76.63
2022-10-01T01:20:41.117Z,76.59
2022-10-01T01:23:12.557Z,76.46
2022-10-01T01:26:01.326Z,76.29
2022-10-01T01:28:31.929Z,75.32
2022-10-01T01:31:03.842Z,74.83
2022-10-01T01:33:34.490Z,74.70
2022-10-01T01:36:17.783Z,74.64
2022-10-01T01:38:55.992Z,74.33
2022-10-01T01:41:28.543Z,73.98
2022-10-01T01:43:58.796Z,73.86
2022-10-01T01:46:32.400Z,74.91
2022-10-01T01:49:01.396Z,75.24
2022-10-01T01:51:36.360Z,75.90
2022-10-01T01:54:05.321Z,75.81
2022-10-01T01:56:34.826Z,75.33
2022-10-01T01:59:03.714Z,76.27
2022-10-01T02:01:36.379Z,76.35
2022-10-01T02:04:12.336Z,75.65
2022-10-01T02:06:42.824Z,75.94
2022-10-01T02:09:19.766Z,76.11
2022-10-01T02:11:58.937Z,75.73
2022-10-01T02:14:36.701Z,75.59
2022-10-01T02:17:13.474Z,75.56
2022-10-01T02:19:57.525Z,75.83
2022-10-01T02:22:42.693Z,76.38
2022-10-01T02:25:13.165Z,77.11
2022-10-01T02:27:45.414Z,77.09
2022-10-01T02:30:13.982Z,77.63
2022-10-01T02:32:44.612Z,78.44
2022-10-01T02:35:14.835Z,77.57
2022-10-01T02:37:44.833Z,77.68
2022-10-01T02:40:16.406Z,77.23
2022-10-01T02:42:50.522Z,76.98
2022-10-01T02:45:23.303Z,76.71
2022-10-01T02:47:56.019Z,76.71
2022-10-01T02:50:27.538Z,76.63
2022-10-01T02:52:59.345Z,77.01
2022-10-01T02:55:30.544Z,77.54
2022-10-01T02:57:59.028Z,77.39
2022-10-01T03:00:28.868Z,76.86
2022-10-01T03:02:57.907Z,77.42
2022-10-01T03:05:26.520Z,77.81
2022-10-01T03:07:54.800Z,77.80
2022-10-01T03:10:23.384Z,77.23
2022-10-01T03:12:51.964Z,77.58
2022-10-01T03:15:20.656Z,79.76
2022-10-01T03:17:53.341Z,79.23
2022-10-01T03:20:22.739Z,78.92
2022-10-01T03:22:51.630Z,79.21
2022-10-01T03:25:20.215Z,79.29
2022-10-01T03:27:53.557Z,80.21
2022-10-01T03:30:22.609Z,79.79
2022-10-01T03:32:50.787Z,79.12
2022-10-01T03:35:20.513Z,78.55
2022-10-01T03:37:48.904Z,78.51
2022-10-01T03:40:17.265Z,79.28
2022-10-01T03:42:45.836Z,79.34
2022-10-01T03:45:14.526Z,79.38
2022-10-01T03:47:42.801Z,79.17
2022-10-01T03:50:11.489Z,80.39
2022-10-01T03:52:40.174Z,80.24
2022-10-01T03:55:08.758Z,79.56
2022-10-01T03:57:37.243Z,79.26
2022-10-01T04:00:08.227Z,78.52
2022-10-01T04:02:40.288Z,78.15
2022-10-01T04:05:09.247Z,78.31
2022-10-01T04:07:37.828Z,79.10
2022-10-01T04:10:06.717Z,80.23
2022-10-01T04:12:34.995Z,80.49
2022-10-01T04:15:03.553Z,80.31
2022-10-01T04:17:32.421Z,79.88
2022-10-01T04:20:00.954Z,79.06
2022-10-01T04:22:29.421Z,77.94
2022-10-01T04:24:57.818Z,77.93
2022-10-01T04:27:26.708Z,77.41
2022-10-01T04:29:55.088Z,76.91
2022-10-01T04:32:23.469Z,76.57
2022-10-01T04:34:54.747Z,76.30
2022-10-01T10:43:29.555Z,30.71
2022-10-01T10:45:58.948Z,31.66
2022-10-01T10:48:33.483Z,28.57
2022-10-01T10:51:03.602Z,28.04
2022-10-01T10:53:44.418Z,28.03
2022-10-01T10:56:23.610Z,28.01
2022-10-01T10:58:52.508Z,27.53
2022-10-01T11:01:28.936Z,27.57
2022-10-01T11:04:00.124Z,27.67
2022-10-01T11:06:28.905Z,27.30
2022-10-01T11:09:03.021Z,27.96
2022-10-01T11:11:37.651Z,27.97
2022-10-01T11:14:24.563Z,27.27
2022-10-01T11:17:00.435Z,27.54
2022-10-01T11:19:29.005Z,27.82
2022-10-01T11:22:00.508Z,28.09
2022-10-01T11:24:53.106Z,28.62
2022-10-01T11:27:39.918Z,28.22
2022-10-01T11:30:17.209Z,28.69
2022-10-01T11:32:48.250Z,29.35
2022-10-01T11:35:37.625Z,29.31
2022-10-01T11:38:15.427Z,29.54
2022-10-01T11:40:46.632Z,29.36
2022-10-01T11:43:31.234Z,28.82
2022-10-01T11:46:03.843Z,28.35
2022-10-01T11:48:38.541Z,28.11
2022-10-01T11:51:12.862Z,28.83
2022-10-01T11:53:53.318Z,28.58
2022-10-01T11:56:43.415Z,28.87
2022-10-01T11:59:23.778Z,28.59
2022-10-01T12:02:15.743Z,28.38
2022-10-01T12:04:58.355Z,28.27
2022-10-01T12:07:38.379Z,28.56
2022-10-01T12:10:45.547Z,28.12
2022-10-01T12:13:56.858Z,28.98
2022-10-01T12:16:40.964Z,29.72
2022-10-01T12:19:11.227Z,29.93
2022-10-01T12:21:39.608Z,29.51
2022-10-01T12:24:16.055Z,30.02
2022-10-01T12:26:56.850Z,30.30
2022-10-01T12:29:25.435Z,30.22
2022-10-01T12:31:53.949Z,30.56
2022-10-01T12:34:41.595Z,30.43
2022-10-01T12:37:28.981Z,30.71
2022-10-01T12:39:57.579Z,30.41
2022-10-01T12:42:35.059Z,30.44
2022-10-01T12:45:13.267Z,30.24
2022-10-01T12:47:50.967Z,30.52
2022-10-01T12:50:26.411Z,30.13
2022-10-01T12:53:03.088Z,30.28
2022-10-01T12:55:37.613Z,30.33
2022-10-01T12:58:24.731Z,29.84
2022-10-01T13:00:59.643Z,30.02
2022-10-01T13:03:46.792Z,29.38
2022-10-01T13:06:36.974Z,28.58
2022-10-01T13:09:24.098Z,26.63
2022-10-01T13:12:03.541Z,26.66
2022-10-01T13:14:33.467Z,24.66
2022-10-01T13:17:14.194Z,23.76
2022-10-01T13:19:51.541Z,21.85
2022-10-01T13:22:32.764Z,22.15
2022-10-01T13:25:10.498Z,22.11
2022-10-01T13:27:43.385Z,21.58
2022-10-01T13:30:15.151Z,22.01
2022-10-01T13:32:58.581Z,21.89
2022-10-01T13:35:34.428Z,21.52
2022-10-01T13:38:17.558Z,21.59
2022-10-01T13:40:57.203Z,21.14
2022-10-01T13:43:25.787Z,20.93
2022-10-01T13:45:55.331Z,21.43
2022-10-01T13:48:29.808Z,22.10
2022-10-01T13:51:03.832Z,23.17
2022-10-01T13:53:38.662Z,24.03
2022-10-01T13:56:08.051Z,24.35
2022-10-01T13:58:40.940Z,24.65
2022-10-01T14:01:23.543Z,25.10
2022-10-01T14:03:58.604Z,25.62
2022-10-01T14:06:27.190Z,25.44
2022-10-01T14:09:05.095Z,25.60
2022-10-01T14:12:12.056Z,25.96
2022-10-01T14:15:01.314Z,26.45
2022-10-01T14:17:31.103Z,26.79
2022-10-01T14:20:00.979Z,27.35
2022-10-01T14:22:35.753Z,28.09
2022-10-01T14:25:12.262Z,28.43
2022-10-01T14:28:06.837Z,28.75
2022-10-01T14:30:53.842Z,29.55
2022-10-01T14:33:22.579Z,29.67
2022-10-01T14:36:02.328Z,29.78
2022-10-01T14:38:31.529Z,30.20
2022-10-01T14:40:59.840Z,30.64
2022-10-01T14:43:29.622Z,30.93
2022-10-01T14:46:00.837Z,31.40
2022-10-01T14:48:31.396Z,31.68
2022-10-01T14:51:01.156Z,32.07
2022-10-01T14:53:32.463Z,32.35
2022-10-01T14:56:02.820Z,32.61
2022-10-01T14:58:36.287Z,32.97
2022-10-01T15:01:05.588Z,33.53
2022-10-01T15:03:46.287Z,33.82
2022-10-01T15:06:16.268Z,34.11
2022-10-01T15:08:47.511Z,34.44
2022-10-01T15:11:22.250Z,34.65
2022-10-01T15:13:51.815Z,34.89
2022-10-01T15:16:21.722Z,34.69
2022-10-01T15:18:53.720Z,35.05
2022-10-01T15:21:26.983Z,35.58
2022-10-01T15:23:55.622Z,35.66
2022-10-01T15:26:27.818Z,35.87
2022-10-01T15:29:06.273Z,36.37
2022-10-01T15:31:34.928Z,36.47
2022-10-01T15:34:04.503Z,36.68
2022-10-01T15:36:34.326Z,36.76
2022-10-01T15:39:04.945Z,36.94
2022-10-01T15:41:33.898Z,37.48
2022-10-01T15:44:03.736Z,38.11
2022-10-01T15:46:35.376Z,37.57
2022-10-01T15:49:17.646Z,38.58
2022-10-01T15:52:11.719Z,39.07
2022-10-01T15:54:41.806Z,39.32
2022-10-01T15:57:15.711Z,39.55
2022-10-01T15:59:44.218Z,39.59
2022-10-01T16:02:19.008Z,39.81
2022-10-01T16:04:47.929Z,40.37
2022-10-01T16:07:26.615Z,40.57
2022-10-01T16:09:59.244Z,40.66
2022-10-01T16:12:28.439Z,40.49
2022-10-01T16:14:56.720Z,40.51
2022-10-01T16:17:37.805Z,40.70
2022-10-01T16:20:06.488Z,40.67
2022-10-01T16:22:35.649Z,40.86
2022-10-01T16:25:07.390Z,40.64
2022-10-01T16:27:49.747Z,40.93
2022-10-01T16:30:22.845Z,40.73
2022-10-01T16:32:51.305Z,41.27
2022-10-01T16:35:23.290Z,41.77
2022-10-01T16:37:53.802Z,41.88
2022-10-01T16:40:24.355Z,42.11
2022-10-01T16:42:53.449Z,41.77
2022-10-01T16:45:25.822Z,41.87
2022-10-01T16:47:56.913Z,42.01
2022-10-01T16:50:26.067Z,41.81
2022-10-01T16:52:55.985Z,41.60
2022-10-01T16:55:26.031Z,42.45
2022-10-01T16:57:54.902Z,42.62
2022-10-01T17:00:24.464Z,42.50
2022-10-01T17:02:53.395Z,44.16
2022-10-01T17:05:23.450Z,45.14
2022-10-01T17:07:52.425Z,45.11
2022-10-01T17:10:25.601Z,44.27
2022-10-01T17:12:56.296Z,44.58
2022-10-01T17:15:26.662Z,45.40
2022-10-01T17:17:57.194Z,45.36
2022-10-01T17:20:28.188Z,45.24
2022-10-01T17:22:58.053Z,44.89
2022-10-01T17:25:31.270Z,44.49
2022-10-01T17:28:00.096Z,44.30
2022-10-01T17:30:29.640Z,44.47
2022-10-01T17:33:00.375Z,44.41
2022-10-01T17:35:29.676Z,44.43
2022-10-01T17:37:58.647Z,44.54
2022-10-01T17:40:27.031Z,44.68
2022-10-01T17:42:55.431Z,45.08
2022-10-01T17:45:23.815Z,45.18
2022-10-01T17:47:53.116Z,44.85
2022-10-01T17:50:21.700Z,44.99
2022-10-01T17:52:50.592Z,45.43
2022-10-01T17:55:21.022Z,45.67
2022-10-01T17:57:50.119Z,46.23
2022-10-01T18:00:18.703Z,46.28
2022-10-01T18:02:47.434Z,46.11
2022-10-01T18:05:17.444Z,46.49
2022-10-01T18:07:45.897Z,46.42
2022-10-01T18:10:14.481Z,47.22
2022-10-01T18:12:42.960Z,46.78
2022-10-01T18:15:11.337Z,47.21
2022-10-01T18:17:43.492Z,47.25
2022-10-01T18:20:15.473Z,48.03
2022-10-01T18:22:43.852Z,48.76
2022-10-01T18:25:14.090Z,49.44
2022-10-01T18:28:22.366Z,49.42
2022-10-01T18:30:54.771Z,50.31
2022-10-01T18:33:23.787Z,50.64
2022-10-01T18:35:55.010Z,50.19
2022-10-01T18:38:27.570Z,51.50
2022-10-01T18:41:10.229Z,51.84
2022-10-01T18:43:39.095Z,52.39
2022-10-01T18:46:27.192Z,52.91
2022-10-01T18:49:04.323Z,53.30
2022-10-01T18:52:01.785Z,53.61
2022-10-01T18:54:57.036Z,53.50
2022-10-01T18:58:09.613Z,53.99
2022-10-01T19:01:18.220Z,54.30
2022-10-01T19:04:22.043Z,54.30
2022-10-01T19:07:13.056Z,55.38
2022-10-01T19:10:04.689Z,55.77
2022-10-01T19:13:15.872Z,55.63
2022-10-01T19:19:42.643Z,56.42
2022-10-01T19:22:42.823Z,56.59
2022-10-01T19:25:31.411Z,57.02
2022-10-01T19:28:28.737Z,57.52
2022-10-01T19:31:17.368Z,57.09
2022-10-01T19:37:46.740Z,58.29
2022-10-01T19:40:35.253Z,58.40
2022-10-01T19:43:32.780Z,58.77
2022-10-01T19:46:41.140Z,58.88
2022-10-01T19:49:29.753Z,59.30
2022-10-01T19:52:38.172Z,59.26
2022-10-01T19:55:46.897Z,59.36
2022-10-01T19:58:55.189Z,59.55
